createdAt,value
2023-01-13T00:00:32.972Z,12.46
2023-01-13T00:02:59.588Z,12.07
2023-01-13T00:05:26.725Z,12.54
2023-01-13T00:07:53.361Z,12.79
2023-01-13T00:10:19.882Z,12.20
2023-01-13T00:12:46.379Z,11.77
2023-01-13T00:15:13.392Z,12.25
2023-01-13T00:17:39.943Z,12.31
2023-01-13T00:20:07.510Z,11.67
2023-01-13T00:22:35.403Z,12.33
2023-01-13T00:25:04.236Z,12.58
2023-01-13T00:27:31.550Z,12.16
2023-01-13T00:29:58.153Z,12.64
2023-01-13T00:32:24.699Z,12.78
2023-01-13T00:34:51.279Z,12.35
2023-01-13T00:37:17.775Z,12.40
2023-01-13T00:39:44.388Z,12.37
2023-01-13T00:42:29.493Z,12.59
2023-01-13T00:44:56.001Z,12.97
2023-01-13T00:47:23.390Z,12.35
2023-01-13T00:49:50.174Z,13.07
2023-01-13T00:52:16.613Z,12.90
2023-01-13T00:54:43.077Z,12.82
2023-01-13T00:57:09.582Z,12.68
2023-01-13T00:59:36.040Z,12.92
2023-01-13T01:02:02.622Z,12.12
2023-01-13T01:04:29.138Z,12.91
2023-01-13T01:06:55.607Z,12.45
2023-01-13T01:09:22.061Z,12.87
2023-01-13T01:11:48.490Z,12.05
2023-01-13T01:14:15.018Z,12.73
2023-01-13T01:16:42.270Z,12.57
2023-01-13T01:19:10.086Z,12.74
2023-01-13T01:21:36.646Z,12.89
2023-01-13T01:24:04.154Z,12.70
2023-01-13T01:26:31.933Z,13.09
2023-01-13T01:28:59.115Z,13.42
2023-01-13T01:31:28.339Z,13.54
2023-01-13T01:33:55.305Z,13.39
2023-01-13T01:36:23.528Z,13.39
2023-01-13T01:38:50.304Z,13.29
2023-01-13T01:41:20.659Z,12.75
2023-01-13T01:43:59.485Z,13.24
2023-01-13T01:46:33.879Z,12.74
2023-01-13T01:49:05.857Z,12.32
2023-01-13T01:51:36.822Z,12.51
2023-01-13T01:54:07.600Z,13.28
2023-01-13T01:56:35.828Z,13.13
2023-01-13T01:59:02.337Z,13.14
2023-01-13T02:01:29.038Z,12.78
2023-01-13T02:04:05.144Z,13.27
2023-01-13T02:06:31.782Z,13.08
2023-01-13T02:08:59.734Z,13.14
2023-01-13T02:12:09.483Z,12.89
2023-01-13T02:14:37.670Z,12.90
2023-01-13T02:17:13.791Z,12.78
2023-01-13T02:20:01.906Z,12.17
2023-01-13T02:23:00.799Z,12.15
2023-01-13T02:25:45.553Z,13.21
2023-01-13T02:28:28.183Z,12.47
2023-01-13T02:31:26.884Z,12.76
2023-01-13T02:34:11.280Z,12.65
2023-01-13T02:36:46.401Z,13.32
2023-01-13T02:39:32.962Z,12.58
2023-01-13T02:42:25.187Z,12.61
2023-01-13T02:44:56.862Z,12.36
2023-01-13T02:47:26.827Z,13.27
2023-01-13T02:49:59.053Z,12.57
2023-01-13T02:52:39.286Z,12.43
2023-01-13T02:55:11.427Z,13.03
2023-01-13T02:57:39.682Z,12.30
2023-01-13T03:00:07.557Z,12.13
2023-01-13T03:02:34.104Z,12.62
2023-01-13T03:05:00.820Z,13.05
2023-01-13T03:07:46.013Z,13.41
2023-01-13T03:10:12.384Z,12.88
2023-01-13T03:12:57.589Z,12.86
2023-01-13T03:15:37.020Z,13.11
2023-01-13T03:18:33.871Z,13.08
2023-01-13T03:21:23.410Z,12.99
2023-01-13T03:24:02.182Z,13.17
2023-01-13T03:26:28.535Z,12.92
2023-01-13T03:29:15.051Z,12.90
2023-01-13T03:31:53.535Z,13.01
2023-01-13T03:34:25.318Z,13.24
2023-01-13T03:36:54.918Z,12.81
2023-01-13T03:39:29.215Z,13.26
2023-01-13T03:42:02.143Z,12.65
2023-01-13T03:44:40.048Z,13.24
2023-01-13T03:47:20.147Z,13.20
2023-01-13T03:50:02.548Z,13.05
2023-01-13T03:52:37.107Z,12.55
2023-01-13T03:55:18.953Z,12.83
2023-01-13T03:58:15.990Z,12.61
2023-01-13T04:00:56.132Z,13.38
2023-01-13T04:03:38.324Z,12.85
2023-01-13T04:06:15.823Z,12.39
2023-01-13T04:08:49.245Z,12.94
2023-01-13T04:11:22.503Z,12.59
2023-01-13T04:13:50.418Z,13.06
2023-01-13T04:16:16.825Z,12.91
2023-01-13T04:18:43.266Z,12.65
2023-01-13T04:21:09.853Z,12.51
2023-01-13T04:23:36.409Z,12.39
2023-01-13T04:26:03.151Z,12.44
2023-01-13T04:28:29.611Z,12.34
2023-01-13T04:30:56.091Z,13.04
2023-01-13T04:33:22.580Z,12.73
2023-01-13T04:35:49.028Z,13.02
2023-01-13T04:38:17.814Z,13.15
2023-01-13T04:40:44.736Z,13.51
2023-01-13T04:43:11.173Z,12.88
2023-01-13T04:45:37.996Z,13.57
2023-01-13T04:48:05.241Z,12.97
2023-01-13T04:50:31.795Z,13.02
2023-01-13T04:52:58.225Z,13.09
2023-01-13T04:55:25.141Z,12.74
2023-01-13T04:57:51.993Z,12.85
2023-01-13T05:00:21.086Z,12.58
2023-01-13T05:02:49.775Z,12.87
2023-01-13T05:05:16.221Z,13.12
2023-01-13T05:07:42.648Z,12.60
2023-01-13T05:10:09.785Z,12.50
2023-01-13T05:12:54.643Z,12.84
2023-01-13T05:15:39.534Z,12.82
2023-01-13T05:18:06.269Z,12.80
2023-01-13T05:20:32.681Z,13.00
2023-01-13T05:23:17.428Z,12.51
2023-01-13T05:25:47.530Z,12.98
2023-01-13T05:28:14.448Z,13.05
2023-01-13T05:30:44.262Z,12.43
2023-01-13T05:33:12.030Z,12.54
2023-01-13T05:35:42.888Z,12.72
2023-01-13T05:38:09.858Z,11.96
2023-01-13T05:40:59.042Z,12.41
2023-01-13T05:43:26.858Z,11.81
2023-01-13T05:46:08.933Z,12.59
2023-01-13T05:48:38.301Z,11.76
2023-01-13T05:51:07.263Z,12.24
2023-01-13T05:53:34.426Z,12.44
2023-01-13T05:56:04.426Z,12.21
2023-01-13T06:01:08.246Z,12.26
2023-01-13T06:03:35.816Z,12.39
2023-01-13T06:06:03.926Z,12.72
2023-01-13T06:08:31.768Z,12.67
2023-01-13T06:10:58.307Z,12.76
2023-01-13T06:16:07.745Z,12.08
2023-01-13T06:18:34.247Z,12.55
2023-01-13T06:21:00.668Z,12.24
2023-01-13T06:23:27.124Z,12.19
2023-01-13T06:26:03.428Z,11.31
2023-01-13T06:28:29.838Z,11.19
2023-01-13T06:31:00.692Z,12.20
2023-01-13T06:33:33.793Z,11.68
2023-01-13T06:36:05.861Z,11.71
2023-01-13T06:38:36.569Z,10.88
2023-01-13T06:41:04.494Z,11.34
2023-01-13T06:43:30.924Z,11.19
2023-01-13T06:45:57.345Z,11.04
2023-01-13T06:48:27.896Z,11.15
2023-01-13T06:50:54.319Z,11.66
2023-01-13T06:53:20.987Z,11.34
2023-01-13T06:55:47.390Z,11.65
2023-01-13T06:58:13.856Z,10.35
2023-01-13T07:00:40.399Z,11.13
2023-01-13T07:03:07.191Z,10.77
2023-01-13T07:05:33.733Z,11.40
2023-01-13T07:08:00.396Z,11.34
2023-01-13T07:10:26.874Z,11.34
2023-01-13T07:13:11.777Z,11.32
2023-01-13T07:15:38.237Z,10.67
2023-01-13T07:18:04.662Z,10.37
2023-01-13T07:20:31.301Z,10.39
2023-01-13T07:22:58.386Z,10.85
2023-01-13T07:25:25.440Z,11.07
2023-01-13T07:27:51.930Z,10.99
2023-01-13T07:30:18.642Z,10.45
2023-01-13T07:32:45.103Z,10.78
2023-01-13T07:35:11.556Z,11.01
2023-01-13T07:37:39.378Z,10.81
2023-01-13T07:40:06.787Z,11.35
2023-01-13T07:42:51.738Z,11.16
2023-01-13T07:45:18.137Z,11.45
2023-01-13T07:47:44.563Z,11.08
2023-01-13T07:50:11.409Z,11.56
2023-01-13T07:52:37.862Z,11.14
2023-01-13T07:55:07.168Z,11.27
2023-01-13T07:57:33.722Z,11.49
2023-01-13T08:00:00.212Z,11.18
2023-01-13T08:02:26.896Z,11.08
2023-01-13T08:04:53.453Z,10.98
2023-01-13T08:07:20.034Z,11.68
2023-01-13T08:09:46.459Z,11.70
2023-01-13T08:12:31.205Z,12.43
2023-01-13T08:14:57.706Z,11.61
2023-01-13T08:17:24.362Z,12.34
2023-01-13T08:19:50.827Z,13.49
2023-01-13T08:22:17.404Z,13.44
2023-01-13T08:24:43.923Z,14.00
2023-01-13T08:27:10.334Z,13.69
2023-01-13T08:29:36.877Z,12.85
2023-01-13T08:32:03.390Z,12.45
2023-01-13T08:34:29.852Z,12.63
2023-01-13T08:36:56.300Z,11.98
2023-01-13T08:39:25.046Z,12.08
2023-01-13T08:41:58.466Z,11.41
2023-01-13T08:44:30.352Z,11.69
2023-01-13T08:46:57.183Z,11.17
2023-01-13T08:49:24.651Z,11.27
2023-01-13T08:51:52.357Z,12.19
2023-01-13T08:54:19.496Z,12.03
2023-01-13T08:56:47.106Z,12.31
2023-01-13T08:59:18.537Z,12.45
2023-01-13T09:01:45.825Z,13.55
2023-01-13T09:04:17.380Z,15.08
2023-01-13T09:06:44.861Z,15.58
2023-01-13T09:09:11.721Z,16.05
2023-01-13T09:12:00.278Z,14.59
2023-01-13T09:14:29.807Z,15.70
2023-01-13T09:16:56.428Z,14.36
2023-01-13T09:19:22.895Z,16.42
2023-01-13T09:21:49.351Z,15.53
2023-01-13T09:24:16.010Z,16.19
2023-01-13T09:26:42.587Z,16.05
2023-01-13T09:29:11.706Z,17.33
2023-01-13T09:31:38.176Z,15.85
2023-01-13T09:34:24.674Z,15.11
2023-01-13T09:36:51.615Z,14.65
2023-01-13T09:39:18.531Z,13.64
2023-01-13T09:42:08.292Z,13.70
2023-01-13T09:44:49.981Z,14.87
2023-01-13T09:47:59.856Z,15.27
2023-01-13T09:50:48.503Z,14.08
2023-01-13T09:53:23.014Z,13.46
2023-01-13T09:55:49.623Z,14.83
2023-01-13T09:58:18.463Z,13.03
2023-01-13T10:01:06.513Z,13.19
2023-01-13T10:03:35.018Z,12.94
2023-01-13T10:06:19.974Z,12.66
2023-01-13T10:08:48.955Z,12.65
2023-01-13T10:11:37.143Z,11.49
2023-01-13T10:14:18.275Z,12.66
2023-01-13T10:16:55.155Z,12.43
2023-01-13T10:19:28.550Z,12.23
2023-01-13T10:22:04.802Z,12.63
2023-01-13T10:24:58.973Z,11.85
2023-01-13T10:27:34.434Z,12.32
2023-01-13T10:30:21.465Z,12.74
2023-01-13T10:32:57.186Z,12.74
2023-01-13T10:35:49.628Z,12.30
2023-01-13T10:38:19.021Z,12.56
2023-01-13T10:40:50.687Z,12.15
2023-01-13T10:43:17.147Z,11.98
2023-01-13T10:45:55.736Z,12.18
2023-01-13T10:48:22.205Z,11.98
2023-01-13T10:50:49.108Z,12.32
2023-01-13T10:53:23.582Z,12.34
2023-01-13T10:56:01.659Z,12.18
2023-01-13T10:58:28.962Z,11.81
2023-01-13T11:01:02.114Z,12.58
2023-01-13T11:03:37.821Z,11.83
2023-01-13T11:06:04.549Z,12.04
2023-01-13T11:08:42.091Z,12.26
2023-01-13T11:11:27.385Z,12.48
2023-01-13T11:14:20.545Z,11.72
2023-01-13T11:16:53.993Z,11.25
2023-01-13T11:19:24.840Z,11.51
2023-01-13T11:21:58.165Z,12.06
2023-01-13T11:24:27.701Z,12.46
2023-01-13T11:27:01.871Z,11.74
2023-01-13T11:29:45.075Z,11.49
2023-01-13T11:32:24.260Z,11.99
2023-01-13T11:35:04.398Z,11.82
2023-01-13T11:37:34.470Z,12.34
2023-01-13T11:40:07.643Z,12.17
2023-01-13T11:42:50.940Z,11.21
2023-01-13T11:45:23.923Z,12.30
2023-01-13T11:47:54.608Z,11.37
2023-01-13T11:50:48.210Z,12.61
2023-01-13T11:53:33.230Z,12.05
2023-01-13T11:56:19.927Z,11.88
2023-01-13T11:59:06.087Z,11.90
2023-01-13T12:01:54.245Z,12.73
2023-01-13T12:04:23.379Z,12.19
2023-01-13T12:07:15.927Z,11.76
2023-01-13T12:09:53.761Z,12.44
2023-01-13T12:12:37.876Z,12.45
2023-01-13T12:15:16.518Z,12.30
2023-01-13T12:17:52.463Z,12.21
2023-01-13T12:20:39.366Z,11.23
2023-01-13T12:23:25.090Z,11.63
2023-01-13T12:25:57.622Z,12.44
2023-01-13T12:28:43.341Z,11.60
2023-01-13T12:31:10.518Z,12.27
2023-01-13T12:34:07.669Z,11.71
2023-01-13T12:36:54.937Z,11.44
2023-01-13T12:39:40.359Z,11.63
2023-01-13T12:42:34.563Z,11.67
2023-01-13T12:45:09.840Z,11.45
2023-01-13T12:47:43.589Z,11.65
2023-01-13T12:50:37.082Z,12.16
2023-01-13T12:53:29.572Z,11.37
2023-01-13T12:56:24.853Z,11.84
2023-01-13T12:58:51.359Z,12.34
2023-01-13T13:01:18.628Z,12.85
2023-01-13T13:04:08.295Z,11.93
2023-01-13T13:06:37.338Z,12.17
2023-01-13T13:09:25.346Z,11.60
2023-01-13T13:12:03.800Z,11.66
2023-01-13T13:14:39.498Z,12.05
2023-01-13T13:17:25.332Z,12.55
2023-01-13T13:19:52.358Z,12.87
2023-01-13T13:22:21.875Z,13.18
2023-01-13T13:24:51.232Z,12.33
2023-01-13T13:27:19.897Z,11.39
2023-01-13T13:30:03.062Z,12.17
2023-01-13T13:32:47.902Z,12.16
2023-01-13T13:35:14.267Z,11.81
2023-01-13T13:38:37.424Z,12.30
2023-01-13T13:41:41.746Z,12.15
2023-01-13T13:44:40.776Z,11.20
2023-01-13T13:47:07.814Z,10.84
2023-01-13T13:49:44.706Z,11.05
2023-01-13T13:52:42.543Z,11.57
2023-01-13T13:55:19.015Z,11.17
2023-01-13T13:57:50.702Z,11.07
2023-01-13T14:00:22.912Z,11.12
2023-01-13T14:02:54.081Z,11.78
2023-01-13T14:05:28.742Z,11.57
2023-01-13T14:07:59.405Z,11.61
2023-01-13T14:10:40.316Z,11.16
2023-01-13T14:13:30.693Z,11.33
2023-01-13T14:16:02.483Z,12.18
2023-01-13T14:18:32.391Z,11.25
2023-01-13T14:21:17.371Z,11.26
2023-01-13T14:23:52.191Z,11.40
2023-01-13T14:26:23.541Z,11.66
2023-01-13T14:28:50.580Z,11.97
2023-01-13T14:31:17.341Z,11.77
2023-01-13T14:33:49.860Z,11.41
2023-01-13T14:36:22.531Z,11.51
2023-01-13T14:39:04.134Z,10.79
2023-01-13T14:41:37.629Z,11.72
2023-01-13T14:44:18.558Z,11.64
2023-01-13T14:46:45.964Z,10.88
2023-01-13T14:49:28.452Z,11.00
2023-01-13T14:52:23.392Z,11.03
2023-01-13T14:54:54.028Z,11.08
2023-01-13T14:57:31.925Z,11.20
2023-01-13T15:00:13.706Z,10.55
2023-01-13T15:02:40.134Z,10.29
2023-01-13T15:05:24.674Z,11.03
2023-01-13T15:07:52.339Z,11.22
2023-01-13T15:10:25.064Z,10.98
2023-01-13T15:12:54.000Z,11.29
2023-01-13T15:15:30.223Z,10.65
2023-01-13T15:17:56.996Z,10.85
2023-01-13T15:20:24.370Z,9.93
2023-01-13T15:22:52.206Z,10.32
2023-01-13T15:25:18.927Z,10.59
2023-01-13T15:27:47.752Z,10.90
2023-01-13T15:30:16.567Z,10.41
2023-01-13T15:32:43.766Z,11.35
2023-01-13T15:35:16.815Z,10.74
2023-01-13T15:37:44.844Z,10.44
2023-01-13T15:40:38.784Z,10.80
2023-01-13T15:43:23.729Z,10.72
2023-01-13T15:46:09.115Z,11.26
2023-01-13T15:48:36.405Z,10.80
2023-01-13T15:51:04.024Z,11.29
2023-01-13T15:53:30.535Z,10.93
2023-01-13T15:55:58.851Z,10.50
2023-01-13T15:58:28.510Z,10.77
2023-01-13T16:00:55.606Z,10.30
2023-01-13T16:03:22.376Z,10.43
2023-01-13T16:05:48.959Z,9.70
2023-01-13T16:08:20.010Z,10.34
2023-01-13T16:10:47.404Z,10.66
2023-01-13T16:13:14.962Z,10.03
2023-01-13T16:15:50.519Z,10.50
2023-01-13T16:18:24.275Z,9.92
2023-01-13T16:20:55.125Z,10.55
2023-01-13T16:23:23.038Z,11.19
2023-01-13T16:25:50.433Z,10.00
2023-01-13T16:28:21.329Z,9.73
2023-01-13T16:30:48.323Z,9.62
2023-01-13T16:33:14.818Z,10.13
2023-01-13T16:36:08.871Z,10.79
2023-01-13T16:38:27.736Z,11.07
2023-01-13T16:40:56.836Z,10.11
2023-01-13T16:43:23.234Z,10.32
2023-01-13T16:45:49.649Z,10.55
2023-01-13T16:48:19.582Z,10.07
2023-01-13T16:50:46.437Z,10.59
2023-01-13T16:53:12.915Z,10.48
2023-01-13T16:55:41.227Z,10.17
2023-01-13T16:58:16.554Z,10.85
2023-01-13T17:00:46.581Z,10.17
2023-01-13T17:03:14.230Z,10.81
2023-01-13T17:05:45.357Z,10.37
2023-01-13T17:08:17.204Z,11.24
2023-01-13T17:10:45.405Z,10.64
2023-01-13T17:13:16.376Z,10.51
2023-01-13T17:15:43.421Z,10.74
2023-01-13T17:18:11.432Z,10.22
2023-01-13T17:20:37.839Z,11.04
2023-01-13T17:23:04.285Z,9.74
2023-01-13T17:25:30.756Z,9.94
2023-01-13T17:27:57.731Z,10.58
2023-01-13T17:30:24.248Z,10.88
2023-01-13T17:32:50.692Z,10.56
2023-01-13T17:35:19.393Z,10.58
2023-01-13T17:37:46.074Z,10.67
2023-01-13T17:40:12.896Z,10.26
2023-01-13T17:42:39.338Z,11.18
2023-01-13T17:45:06.937Z,10.70
2023-01-13T17:47:33.341Z,11.10
2023-01-13T17:49:59.944Z,10.73
2023-01-13T17:52:26.380Z,10.48
2023-01-13T17:54:52.856Z,10.33
2023-01-13T17:57:19.340Z,11.04
2023-01-13T17:59:47.833Z,10.65
2023-01-13T18:02:14.637Z,11.23
2023-01-13T18:04:41.977Z,10.61
2023-01-13T18:07:08.657Z,10.83
2023-01-13T18:09:35.047Z,10.66
2023-01-13T18:12:01.876Z,9.98
2023-01-13T18:14:28.349Z,9.79
2023-01-13T18:17:03.894Z,10.74
2023-01-13T18:19:49.037Z,10.39
2023-01-13T18:22:34.480Z,10.19
2023-01-13T18:25:22.786Z,10.51
2023-01-13T18:27:49.212Z,10.32
2023-01-13T18:30:15.954Z,9.98
2023-01-13T18:32:42.431Z,10.27
2023-01-13T18:35:10.433Z,10.19
2023-01-13T18:37:42.227Z,10.46
2023-01-13T18:40:11.226Z,10.05
2023-01-13T18:42:55.967Z,10.04
2023-01-13T18:45:25.967Z,9.79
2023-01-13T18:47:54.548Z,9.74
2023-01-13T18:50:22.275Z,9.85
2023-01-13T18:53:13.299Z,9.71
2023-01-13T18:59:04.907Z,9.82
2023-01-13T19:01:31.554Z,10.15
2023-01-13T19:04:10.272Z,9.45
2023-01-13T19:06:39.700Z,9.98
2023-01-13T19:09:10.994Z,10.47
2023-01-13T19:11:37.495Z,9.76
2023-01-13T19:14:04.536Z,9.78
2023-01-13T19:16:30.991Z,10.62
2023-01-13T19:18:57.398Z,9.64
2023-01-13T19:21:24.777Z,9.72
2023-01-13T19:23:55.804Z,10.16
2023-01-13T19:26:22.222Z,10.43
2023-01-13T19:28:48.675Z,9.90
2023-01-13T19:31:17.365Z,10.45
2023-01-13T19:33:43.809Z,10.80
2023-01-13T19:36:10.801Z,10.19
2023-01-13T19:38:37.895Z,10.48
2023-01-13T19:41:11.514Z,9.74
2023-01-13T19:43:56.413Z,10.18
2023-01-13T19:46:25.709Z,10.11
2023-01-13T19:48:52.165Z,9.16
2023-01-13T19:51:18.581Z,9.71
2023-01-13T19:53:46.780Z,10.17
2023-01-13T19:56:14.377Z,9.33
2023-01-13T19:58:41.994Z,10.67
2023-01-13T20:01:10.135Z,10.05
2023-01-13T20:03:37.701Z,9.79
2023-01-13T20:06:08.682Z,9.50
2023-01-13T20:08:35.116Z,9.50
2023-01-13T20:11:21.407Z,9.50
2023-01-13T20:13:49.278Z,9.40
2023-01-13T20:16:15.746Z,9.74
2023-01-13T20:18:42.188Z,9.37
2023-01-13T20:21:08.901Z,10.20
2023-01-13T20:23:35.957Z,9.65
2023-01-13T20:26:02.415Z,10.22
2023-01-13T20:28:28.882Z,10.63
2023-01-13T20:30:55.783Z,9.70
2023-01-13T20:33:22.172Z,9.95
2023-01-13T20:35:56.826Z,10.63
2023-01-13T20:38:23.246Z,10.59
2023-01-13T20:41:01.470Z,10.11
2023-01-13T20:43:28.105Z,10.13
2023-01-13T20:45:54.533Z,9.93
2023-01-13T20:48:20.945Z,9.63
2023-01-13T20:50:53.438Z,10.15
2023-01-13T20:53:19.867Z,9.69
2023-01-13T20:55:46.309Z,9.92
2023-01-13T20:58:12.715Z,9.68
2023-01-13T21:00:39.220Z,9.80
2023-01-13T21:03:05.674Z,10.12
2023-01-13T21:05:33.256Z,9.91
2023-01-13T21:07:59.806Z,9.15
2023-01-13T21:10:26.237Z,10.26
2023-01-13T21:13:11.381Z,10.63
2023-01-13T21:15:37.786Z,10.38
2023-01-13T21:18:22.720Z,9.50
2023-01-13T21:20:50.794Z,10.18
2023-01-13T21:23:17.200Z,10.24
2023-01-13T21:25:43.642Z,10.29
2023-01-13T21:28:11.638Z,10.51
2023-01-13T21:30:39.184Z,10.27
2023-01-13T21:33:06.287Z,9.47
2023-01-13T21:35:32.875Z,9.91
2023-01-13T21:37:59.437Z,9.79
2023-01-13T21:40:26.053Z,10.16
2023-01-13T21:43:10.825Z,10.01
2023-01-13T21:46:14.526Z,9.73
2023-01-13T21:48:40.979Z,9.76
2023-01-13T21:51:07.402Z,9.87
2023-01-13T21:53:33.861Z,10.05
2023-01-13T21:56:00.278Z,10.56
2023-01-13T21:58:26.708Z,10.67
2023-01-13T22:00:53.980Z,10.65
2023-01-13T22:03:20.491Z,9.70
2023-01-13T22:05:53.740Z,9.85
2023-01-13T22:08:20.139Z,10.08
2023-01-13T22:10:57.466Z,10.05
2023-01-13T22:13:42.816Z,10.16
2023-01-13T22:16:09.464Z,10.17
2023-01-13T22:18:36.020Z,9.71
2023-01-13T22:21:02.443Z,9.94
2023-01-13T22:23:28.907Z,10.31
2023-01-13T22:26:02.943Z,10.41
2023-01-13T22:28:34.226Z,9.99
2023-01-13T22:31:01.235Z,9.64
2023-01-13T22:33:27.749Z,10.03
2023-01-13T22:35:55.884Z,9.98
2023-01-13T22:38:23.713Z,9.57
2023-01-13T22:41:00.682Z,10.31
2023-01-13T22:43:27.621Z,10.10
2023-01-13T22:45:58.174Z,10.22
2023-01-13T22:48:24.647Z,10.94
2023-01-13T22:50:51.215Z,11.03
2023-01-13T22:53:17.883Z,10.12
2023-01-13T22:55:44.472Z,10.23
2023-01-13T22:58:10.858Z,10.31
2023-01-13T23:00:37.384Z,9.70
2023-01-13T23:03:05.153Z,10.33
2023-01-13T23:05:31.560Z,10.44
2023-01-13T23:07:57.956Z,9.80
2023-01-13T23:10:24.399Z,10.00
2023-01-13T23:12:50.803Z,10.18
2023-01-13T23:15:17.306Z,9.83
2023-01-13T23:17:43.721Z,10.11
2023-01-13T23:20:10.840Z,9.43
2023-01-13T23:22:38.643Z,10.10
2023-01-13T23:25:05.621Z,10.74
2023-01-13T23:27:32.045Z,9.96
2023-01-13T23:29:58.435Z,9.51
2023-01-13T23:32:24.911Z,9.71
2023-01-13T23:34:51.384Z,9.86
2023-01-13T23:37:17.788Z,9.94
2023-01-13T23:39:44.481Z,9.49
2023-01-13T23:42:10.924Z,9.61
2023-01-13T23:44:37.340Z,9.72
2023-01-13T23:47:03.895Z,9.97
2023-01-13T23:49:31.359Z,9.87
2023-01-13T23:51:57.774Z,9.35
2023-01-13T23:54:24.388Z,9.76
2023-01-13T23:56:52.444Z,9.57
2023-01-13T23:59:19.924Z,9.20
